Time;durP1;ratioP1;P1;durP2;ratioP2;P2;SDS_P1;SDS_P2;PMS_P1;PMS_P2;Temp;Humidity;BMP_temperature;BMP_pressure;BME280_temperature;BME280_humidity;BME280_pressure;Samples;Min_cycle;Max_cycle;Signal;HPM_P1;HPM_P2
2022/05/04 00:01:23;;;;;;;11.45;4.47;;;;;;;20.15;37.91;101612.53;5015453;28;20026;-66
2022/05/04 00:03:48;;;;;;;11.82;4.20;;;;;;;20.13;37.24;101620.00;5015801;28;20029;-66
2022/05/04 00:06:13;;;;;;;14.82;4.30;;;;;;;20.12;37.57;101616.47;5015586;28;20464;-66
2022/05/04 00:08:39;;;;;;;11.15;3.88;;;;;;;20.08;37.54;101612.38;5015477;28;20026;-67
2022/05/04 00:11:04;;;;;;;10.82;4.47;;;;;;;20.07;37.84;101609.84;5015667;28;20029;-68
2022/05/04 00:13:31;;;;;;;12.40;3.78;;;;;;;20.06;37.55;101619.84;5014763;28;20026;-67
2022/05/04 00:15:57;;;;;;;12.15;3.63;;;;;;;20.05;37.28;101617.28;5014615;28;20101;-66
2022/05/04 00:18:22;;;;;;;9.32;3.88;;;;;;;20.04;37.90;101612.91;5015613;28;20034;-67
2022/05/04 00:20:48;;;;;;;10.77;4.15;;;;;;;20.03;37.57;101606.59;5015483;28;20048;-67
2022/05/04 00:23:13;;;;;;;8.93;3.85;;;;;;;20.01;37.63;101610.50;5014999;28;20076;-67
2022/05/04 00:25:38;;;;;;;9.25;3.85;;;;;;;19.99;37.43;101607.94;5015308;28;20041;-66
2022/05/04 00:28:04;;;;;;;8.43;3.90;;;;;;;19.98;36.99;101608.13;5015247;28;20084;-67
2022/05/04 00:30:31;;;;;;;6.72;3.88;;;;;;;19.94;37.94;101607.63;5015105;28;20116;-66
2022/05/04 00:32:57;;;;;;;13.60;3.72;;;;;;;19.91;37.58;101605.22;5014959;28;20037;-67
2022/05/04 00:35:22;;;;;;;7.85;3.50;;;;;;;19.89;37.55;101607.28;5014930;28;20022;-66
2022/05/04 00:37:47;;;;;;;12.82;4.78;;;;;;;19.87;37.43;101603.03;5014993;28;20041;-67
2022/05/04 00:40:13;;;;;;;14.07;4.95;;;;;;;19.84;37.16;101611.53;4997363;28;20029;-67
2022/05/04 00:42:38;;;;;;;11.52;3.63;;;;;;;19.80;37.21;101607.44;5020456;28;20052;-66
2022/05/04 00:45:04;;;;;;;5.07;3.05;;;;;;;19.77;37.63;101600.47;5034663;28;20493;-66
2022/05/04 00:47:30;;;;;;;12.60;3.40;;;;;;;19.74;37.61;101603.53;5034386;28;20378;-68
2022/05/04 00:49:56;;;;;;;10.82;3.60;;;;;;;19.71;37.59;101601.16;5037702;28;20026;-67
2022/05/04 00:52:22;;;;;;;11.57;3.63;;;;;;;19.69;37.31;101605.91;5034447;28;20184;-67
2022/05/04 00:54:50;;;;;;;7.38;3.38;;;;;;;19.66;37.79;101598.09;5016368;28;20041;-67
2022/05/04 00:57:17;;;;;;;5.80;3.67;;;;;;;19.64;38.23;101602.88;5034568;28;20379;-67
2022/05/04 00:59:43;;;;;;;12.02;3.40;;;;;;;19.61;37.74;101603.19;5034461;28;20037;-66
2022/05/04 01:02:08;;;;;;;8.15;3.28;;;;;;;19.58;37.73;101603.53;5034138;28;20047;-67
2022/05/04 01:04:34;;;;;;;8.25;2.83;;;;;;;19.55;37.93;101598.44;5034096;28;20065;-66
2022/05/04 01:07:00;;;;;;;8.18;3.22;;;;;;;19.52;37.89;101605.06;5034224;28;20032;-67
2022/05/04 01:09:26;;;;;;;5.03;2.67;;;;;;;19.49;38.27;101608.09;5034020;28;20430;-67
2022/05/04 01:11:51;;;;;;;6.28;3.33;;;;;;;19.47;38.12;101604.72;5033933;28;20029;-66
2022/05/04 01:14:17;;;;;;;9.30;3.05;;;;;;;19.44;37.94;101606.91;5034185;28;20368;-67
2022/05/04 01:16:50;;;;;;;9.75;3.17;;;;;;;19.41;37.28;101613.53;5033984;28;20030;-67
2022/05/04 01:19:16;;;;;;;;;;;;;;;19.38;37.76;101602.09;5034265;28;20028;-66
2022/05/04 01:21:41;;;;;;;10.80;3.10;;;;;;;19.35;37.63;101613.31;5037913;28;19913;-67
2022/05/04 01:24:08;;;;;;;6.90;2.53;;;;;;;19.32;37.62;101608.22;5033797;28;20021;-67
2022/05/04 01:26:34;;;;;;;8.45;2.88;;;;;;;19.30;37.85;101615.69;5033339;28;20083;-66
2022/05/04 01:29:00;;;;;;;11.00;3.15;;;;;;;19.28;37.49;101612.28;5033571;28;20049;-66
2022/05/04 01:31:26;;;;;;;12.52;2.35;;;;;;;19.25;37.88;101608.03;5033741;28;20027;-67
2022/05/04 01:33:51;;;;;;;6.40;2.83;;;;;;;19.23;37.50;101610.09;5033903;28;20022;-66
2022/05/04 01:36:17;;;;;;;4.40;2.40;;;;;;;19.22;37.80;101612.94;5016022;28;20356;-66
2022/05/04 01:38:42;;;;;;;7.53;2.58;;;;;;;19.19;38.29;101617.69;5033898;28;20079;-67
2022/05/04 01:42:02;;;;;;;6.25;2.50;;;;;;;19.18;37.49;101612.41;5033671;28;20025;-66
2022/05/04 01:43:53;;;;;;;6.25;2.30;;;;;;;19.14;37.66;101611.94;5033418;28;20509;-66
2022/05/04 01:46:19;;;;;;;6.38;2.40;;;;;;;19.13;37.86;101612.94;5033771;28;20109;-66
2022/05/04 01:48:44;;;;;;;3.58;1.67;;;;;;;19.10;37.79;101607.81;5033746;28;20113;-67
2022/05/04 01:51:10;;;;;;;3.33;2.72;;;;;;;19.07;37.92;101608.16;5033465;28;20053;-67
2022/05/04 01:53:35;;;;;;;7.45;2.45;;;;;;;19.05;37.20;101612.91;5033662;28;20072;-65
2022/05/04 01:56:03;;;;;;;5.90;2.33;;;;;;;19.03;37.02;101614.09;5033631;28;20030;-66
2022/05/04 01:58:28;;;;;;;7.05;3.05;;;;;;;19.01;36.76;101602.56;5015934;28;20026;-67
2022/05/04 02:00:54;;;;;;;10.82;2.65;;;;;;;18.99;37.08;101607.28;5033536;28;20017;-67
2022/05/04 02:03:19;;;;;;;6.40;2.80;;;;;;;18.96;37.58;101610.31;5033849;28;20025;-67
2022/05/04 02:05:44;;;;;;;8.13;2.83;;;;;;;18.94;37.63;101606.91;5033258;28;20022;-67
2022/05/04 02:08:10;;;;;;;10.73;3.13;;;;;;;18.92;36.94;101606.25;5048766;28;20474;-67
2022/05/04 02:10:35;;;;;;;9.05;2.65;;;;;;;18.90;37.71;101606.38;5035469;28;20385;-66
2022/05/04 02:13:00;;;;;;;7.78;2.28;;;;;;;18.88;37.82;101611.16;5053090;28;20021;-66
2022/05/04 02:15:26;;;;;;;5.97;2.35;;;;;;;18.86;37.74;101610.47;5053056;28;20025;-66
2022/05/04 02:17:51;;;;;;;11.48;2.22;;;;;;;18.84;37.48;101608.94;5053576;28;20032;-67
2022/05/04 02:20:16;;;;;;;13.23;3.60;;;;;;;18.80;38.37;101618.41;5053232;28;20532;-66
2022/05/04 02:22:42;;;;;;;6.80;2.67;;;;;;;18.78;37.92;101615.88;5053417;28;20489;-66
2022/05/04 02:25:07;;;;;;;10.32;2.60;;;;;;;18.76;37.35;101615.16;5053204;28;20028;-67
2022/05/04 02:27:33;;;;;;;4.15;2.25;;;;;;;18.73;37.17;101611.94;5053182;28;20124;-67
2022/05/04 02:29:58;;;;;;;5.97;2.67;;;;;;;18.72;37.30;101605.66;5053232;28;20028;-67
2022/05/04 02:32:23;;;;;;;6.82;2.60;;;;;;;18.70;36.90;101602.25;5053084;28;20032;-66
2022/05/04 02:40:19;;;;;;;9.27;2.50;;;;;;;18.59;37.19;101610.69;5055551;28;20040;-67
2022/05/04 02:42:46;;;;;;;8.55;2.45;;;;;;;18.58;37.71;101609.84;5056497;28;20041;-67
2022/05/04 02:45:11;;;;;;;6.63;2.20;;;;;;;18.56;37.45;101611.00;5056832;28;20394;-67
2022/05/04 02:47:38;;;;;;;7.50;2.88;;;;;;;18.54;37.69;101604.88;5056776;28;20040;-67
2022/05/04 02:50:04;;;;;;;10.27;2.40;;;;;;;18.54;36.58;101602.16;5038898;28;20028;-66
2022/05/04 02:52:29;;;;;;;5.65;2.17;;;;;;;18.52;37.43;101604.19;5055980;28;20074;-67
2022/05/04 02:54:55;;;;;;;7.97;2.42;;;;;;;18.49;37.38;101604.50;5056380;28;20108;-67
2022/05/04 02:57:20;;;;;;;4.93;2.10;;;;;;;18.48;37.41;101608.25;5056334;28;20032;-67
2022/05/04 02:59:45;;;;;;;4.22;2.38;;;;;;;18.46;37.87;101612.94;5056231;28;20052;-68
2022/05/04 03:02:29;;;;;;;10.05;2.92;;;;;;;18.45;37.47;101603.13;5056384;28;20036;-67
2022/05/04 03:05:05;;;;;;;10.70;2.72;;;;;;;18.41;37.02;101607.16;5056274;28;20107;-67
2022/05/04 03:07:31;;;;;;;6.40;2.50;;;;;;;18.39;37.26;101603.75;5056197;28;20032;-66
2022/05/04 03:09:57;;;;;;;6.05;2.30;;;;;;;18.34;37.75;101601.50;5056159;28;20108;-67
2022/05/04 03:12:23;;;;;;;5.82;2.78;;;;;;;18.31;37.59;101606.41;5056073;28;20078;-67
2022/05/04 03:14:49;;;;;;;9.45;2.58;;;;;;;18.29;38.34;101609.28;5056026;28;20475;-67
2022/05/04 03:17:15;;;;;;;9.02;2.53;;;;;;;18.28;37.98;101601.31;5055877;28;20083;-66
2022/05/04 03:19:40;;;;;;;6.35;2.35;;;;;;;18.25;37.18;101596.22;5055921;28;20025;-66
2022/05/04 03:22:05;;;;;;;7.00;3.05;;;;;;;18.23;36.68;101595.53;5056250;28;20025;-67
2022/05/04 03:24:31;;;;;;;10.20;2.75;;;;;;;18.21;37.92;101600.25;5056084;28;20092;-67
2022/05/04 03:26:57;;;;;;;8.98;2.78;;;;;;;18.19;37.31;101597.69;5056243;28;20090;-67
2022/05/04 03:29:22;;;;;;;7.57;2.72;;;;;;;18.17;37.11;101601.59;5055702;28;20033;-66
2022/05/04 03:31:47;;;;;;;11.45;2.90;;;;;;;18.15;37.46;101606.28;5055598;28;20029;-66
2022/05/04 03:34:13;;;;;;;6.35;2.47;;;;;;;18.14;38.29;101604.63;5055328;28;20491;-66
2022/05/04 03:36:38;;;;;;;8.95;2.53;;;;;;;18.12;37.30;101601.22;5055259;28;20037;-67
2022/05/04 03:39:04;;;;;;;9.27;2.95;;;;;;;18.10;37.11;101597.78;5055502;28;20021;-67
2022/05/04 03:41:29;;;;;;;6.25;2.03;;;;;;;18.07;36.57;101603.53;5055228;28;20025;-67
2022/05/04 03:43:55;;;;;;;9.68;3.20;;;;;;;18.02;38.00;101602.16;5055496;28;20025;-67
2022/05/04 03:46:21;;;;;;;13.27;3.15;;;;;;;18.01;37.47;101600.44;5055436;28;20104;-65
2022/05/04 03:48:49;;;;;;;5.53;2.60;;;;;;;17.98;37.72;101591.78;5055298;28;20021;-68
2022/05/04 03:51:18;;;;;;;6.00;2.72;;;;;;;17.95;37.94;101592.94;5054342;28;20025;-67
2022/05/04 03:53:44;;;;;;;10.73;2.90;;;;;;;17.93;37.58;101589.53;5055540;28;20029;-66
2022/05/04 03:56:09;;;;;;;4.97;2.55;;;;;;;17.91;37.31;101588.84;5045536;28;20059;-66
2022/05/04 03:58:37;;;;;;;10.02;3.08;;;;;;;17.88;36.99;101601.88;5035484;28;20025;-66
2022/05/04 04:01:03;;;;;;;7.90;2.72;;;;;;;17.86;38.01;101598.47;5053901;28;20035;-66
2022/05/04 04:03:28;;;;;;;14.40;2.72;;;;;;;17.83;38.29;101601.50;5055249;28;20097;-66
2022/05/04 04:05:53;;;;;;;7.60;3.15;;;;;;;17.81;38.06;101603.53;5055366;28;20045;-67
2022/05/04 04:08:20;;;;;;;6.38;2.60;;;;;;;17.78;37.41;101604.66;5055356;28;20040;-66
2022/05/04 04:10:45;;;;;;;8.13;3.15;;;;;;;17.76;38.55;101594.97;5055219;28;20027;-67
2022/05/04 04:13:11;;;;;;;9.90;3.85;;;;;;;17.76;37.20;101605.81;5054468;28;20486;-67
2022/05/04 04:15:36;;;;;;;7.80;3.47;;;;;;;17.73;38.37;101607.00;5052584;28;20501;-66
2022/05/04 04:18:01;;;;;;;8.48;2.75;;;;;;;17.72;38.21;101608.03;5048513;28;20036;-67
2022/05/04 04:23:11;;;;;;;7.43;3.13;;;;;;;17.69;37.56;101600.19;5054687;28;20040;-66
2022/05/04 04:25:37;;;;;;;9.52;3.10;;;;;;;17.68;38.31;101600.34;5054908;28;20024;-67
2022/05/04 04:28:02;;;;;;;7.68;3.30;;;;;;;17.68;37.46;101603.06;5054504;28;20044;-67
2022/05/04 04:30:28;;;;;;;9.13;3.15;;;;;;;17.69;38.66;101605.63;5054991;28;20033;-67
2022/05/04 04:32:53;;;;;;;9.90;3.58;;;;;;;17.68;38.73;101609.31;5054553;28;20086;-67
2022/05/04 04:35:18;;;;;;;8.57;3.58;;;;;;;17.68;37.88;101614.75;5054551;28;20112;-69
2022/05/04 04:37:44;;;;;;;13.25;3.90;;;;;;;17.67;37.49;101607.63;5036655;28;20020;-67
2022/05/04 04:40:09;;;;;;;10.38;3.22;;;;;;;17.68;37.18;101608.47;5054381;28;20394;-67
2022/05/04 04:42:35;;;;;;;10.25;2.97;;;;;;;17.69;38.30;101611.03;5053960;28;20422;-67
2022/05/04 04:45:00;;;;;;;7.20;3.08;;;;;;;17.71;38.37;101613.59;5054197;28;20090;-66
2022/05/04 04:47:25;;;;;;;9.05;2.97;;;;;;;17.73;37.74;101614.25;5036694;28;20027;-67
2022/05/04 04:49:54;;;;;;;11.48;3.10;;;;;;;17.74;38.30;101608.72;5054248;28;20457;-67
2022/05/04 04:52:19;;;;;;;7.05;3.22;;;;;;;17.75;37.06;101610.41;5053766;28;20379;-66
2022/05/04 04:54:45;;;;;;;13.95;3.72;;;;;;;17.77;38.21;101613.81;5054321;28;20032;-66
2022/05/04 04:57:10;;;;;;;10.93;3.30;;;;;;;17.80;37.59;101621.63;5054321;28;20028;-67
2022/05/04 04:59:35;;;;;;;10.75;3.25;;;;;;;17.82;38.26;101619.63;5054345;28;20048;-67
2022/05/04 05:02:01;;;;;;;12.55;3.67;;;;;;;17.84;37.97;101617.59;5053802;28;20029;-66
2022/05/04 05:04:26;;;;;;;9.40;3.45;;;;;;;17.86;37.49;101623.72;5053891;28;20052;-67
2022/05/04 05:06:52;;;;;;;13.25;4.15;;;;;;;17.89;38.40;101618.00;5048048;28;20021;-67
2022/05/04 05:09:17;;;;;;;10.50;3.92;;;;;;;17.91;37.54;101621.38;5033892;28;20091;-67
2022/05/04 05:11:42;;;;;;;12.27;3.55;;;;;;;17.94;37.10;101623.78;5022725;28;20049;-67
2022/05/04 05:16:52;;;;;;;6.30;2.75;;;;;;;18.01;38.12;101627.56;5016583;28;20121;-66
2022/05/04 05:19:17;;;;;;;13.02;3.50;;;;;;;18.08;38.30;101632.34;5013977;28;20049;-68
2022/05/04 05:21:42;;;;;;;9.70;3.45;;;;;;;18.11;37.08;101630.19;5013862;28;20428;-67
2022/05/04 05:24:08;;;;;;;11.32;3.80;;;;;;;18.16;37.99;101624.28;5016001;28;20391;-66
2022/05/04 05:26:33;;;;;;;6.90;3.10;;;;;;;18.21;38.78;101638.22;5033886;28;20029;-66
2022/05/04 05:28:58;;;;;;;9.05;3.95;;;;;;;18.25;37.69;101629.59;5033588;28;20056;-67
2022/05/04 05:31:24;;;;;;;6.38;2.75;;;;;;;18.31;37.82;101623.56;5021004;28;20070;-66
2022/05/04 05:33:50;;;;;;;9.20;2.55;;;;;;;18.36;37.39;101623.91;5013755;28;20033;-65
2022/05/04 05:36:15;;;;;;;7.88;4.68;;;;;;;18.42;37.42;101630.56;5013741;28;20025;-66
2022/05/04 05:38:40;;;;;;;17.40;3.40;;;;;;;18.48;37.91;101624.53;5013933;28;20028;-66
2022/05/04 05:41:06;;;;;;;11.85;3.47;;;;;;;18.56;37.06;101622.69;4996291;28;20152;-65
2022/05/04 05:43:31;;;;;;;7.13;3.67;;;;;;;18.66;37.46;101622.59;5013673;28;20078;-66
2022/05/04 05:45:57;;;;;;;7.57;3.55;;;;;;;18.79;37.81;101627.56;5013961;28;20032;-66
2022/05/04 05:48:22;;;;;;;24.17;3.83;;;;;;;18.91;37.29;101624.41;5014167;28;20025;-66
2022/05/04 05:50:48;;;;;;;12.95;5.03;;;;;;;19.06;37.62;101625.47;5013848;28;20026;-65
2022/05/04 05:53:17;;;;;;;9.63;4.18;;;;;;;19.12;37.31;101619.38;5013917;28;20030;-66
2022/05/04 05:55:42;;;;;;;15.02;3.42;;;;;;;19.38;36.78;101623.84;5013841;28;20026;-66
2022/05/04 05:58:09;;;;;;;12.25;3.38;;;;;;;19.46;36.60;101623.88;4996374;28;20029;-65
2022/05/04 06:00:35;;;;;;;9.98;3.17;;;;;;;19.52;36.90;101631.38;5013655;28;20033;-66
2022/05/04 06:03:01;;;;;;;12.35;4.03;;;;;;;19.58;37.13;101630.72;5013753;28;20025;-65
2022/05/04 06:05:26;;;;;;;6.70;3.72;;;;;;;19.60;37.15;101634.97;5013715;28;20144;-66
2022/05/04 06:07:51;;;;;;;11.02;4.10;;;;;;;19.65;37.18;101631.75;5013183;28;20026;-65
2022/05/04 06:10:17;;;;;;;11.38;3.35;;;;;;;19.69;36.90;101623.09;5013661;28;20025;-66
2022/05/04 06:12:43;;;;;;;13.43;4.47;;;;;;;19.74;36.99;101628.00;5013793;28;20557;-65
2022/05/04 06:15:10;;;;;;;8.40;3.72;;;;;;;19.76;37.25;101623.28;5016108;28;20104;-65
2022/05/04 06:17:36;;;;;;;8.32;3.50;;;;;;;19.82;36.57;101633.44;5017784;28;20440;-66
2022/05/04 06:20:03;;;;;;;11.30;3.83;;;;;;;19.89;36.67;101622.75;5017413;28;20372;-65
2022/05/04 06:22:29;;;;;;;8.95;2.97;;;;;;;20.04;36.27;101632.78;5017482;28;20049;-65
2022/05/04 06:24:54;;;;;;;9.40;3.78;;;;;;;20.08;36.57;101634.13;5017474;28;20511;-66
2022/05/04 06:27:19;;;;;;;10.93;3.83;;;;;;;20.26;36.53;101626.66;5017373;28;20030;-66
2022/05/04 06:35:13;;;;;;;10.50;3.95;;;;;;;20.94;35.68;101626.09;5017112;28;20097;-66
2022/05/04 06:37:39;;;;;;;6.47;3.63;;;;;;;21.09;35.86;101629.81;5017217;28;20104;-66
2022/05/04 06:40:05;;;;;;;10.23;3.67;;;;;;;21.26;35.52;101626.00;5016872;28;20022;-66
2022/05/04 06:42:30;;;;;;;10.77;3.47;;;;;;;21.50;35.31;101627.69;5016714;28;20523;-66
2022/05/04 06:44:56;;;;;;;8.48;3.42;;;;;;;21.72;35.35;101629.56;5016875;28;20129;-65
2022/05/04 06:47:21;;;;;;;10.38;4.30;;;;;;;21.92;35.14;101621.78;5017029;28;20089;-66
2022/05/04 06:49:47;;;;;;;9.35;3.85;;;;;;;22.12;34.97;101625.69;5017024;28;20053;-66
2022/05/04 06:52:12;;;;;;;14.05;3.97;;;;;;;22.32;34.72;101632.34;5016407;28;20022;-66
2022/05/04 06:54:37;;;;;;;17.25;3.75;;;;;;;22.50;34.27;101629.25;5016792;28;20079;-65
2022/05/04 06:57:06;;;;;;;7.60;3.53;;;;;;;22.69;33.97;101636.06;5016282;28;20026;-65
2022/05/04 06:59:31;;;;;;;13.27;3.80;;;;;;;22.86;34.41;101627.50;5016952;28;20056;-65
2022/05/04 07:01:56;;;;;;;13.75;4.30;;;;;;;23.07;33.89;101633.03;5016972;28;20412;-65
2022/05/04 07:04:22;;;;;;;9.43;4.20;;;;;;;23.25;33.20;101627.16;5016933;28;20032;-66
2022/05/04 07:06:48;;;;;;;10.30;3.40;;;;;;;23.42;33.71;101616.84;5016699;28;20029;-66
2022/05/04 07:09:14;;;;;;;13.00;4.65;;;;;;;23.58;33.41;101622.94;5016519;28;20029;-66
2022/05/04 07:11:39;;;;;;;10.63;3.92;;;;;;;23.73;33.56;101618.22;5016609;28;20026;-65
2022/05/04 07:14:04;;;;;;;11.43;4.10;;;;;;;23.89;33.25;101613.53;5034146;28;20149;-65
2022/05/04 07:16:30;;;;;;;15.50;4.60;;;;;;;24.07;32.61;101613.88;5016420;28;20137;-66
2022/05/04 07:18:55;;;;;;;9.68;4.18;;;;;;;24.24;32.37;101616.19;5016404;28;20054;-66
2022/05/04 07:21:20;;;;;;;11.10;3.70;;;;;;;24.40;32.22;101615.00;5016468;28;20022;-65
2022/05/04 07:23:46;;;;;;;10.82;3.55;;;;;;;24.57;32.63;101619.13;5016040;28;20029;-65
2022/05/04 07:26:11;;;;;;;14.85;4.18;;;;;;;24.75;32.49;101624.09;4998572;28;20068;-66
2022/05/04 07:28:38;;;;;;;8.65;4.32;;;;;;;24.89;32.16;101618.53;5015721;28;20495;-65
2022/05/04 07:31:03;;;;;;;7.78;3.60;;;;;;;25.03;32.22;101613.94;5016066;28;20053;-65
2022/05/04 07:33:29;;;;;;;12.52;4.03;;;;;;;25.19;31.46;101620.94;5016330;28;20065;-65
2022/05/04 07:35:54;;;;;;;10.50;4.22;;;;;;;25.34;32.17;101621.66;5016027;28;20117;-65
2022/05/04 07:38:19;;;;;;;9.63;4.05;;;;;;;25.47;31.16;101621.72;5015820;28;20030;-66
2022/05/04 07:43:28;;;;;;;11.15;3.90;;;;;;;25.81;31.23;101624.31;5015802;28;20057;-65
2022/05/04 07:45:54;;;;;;;10.57;4.03;;;;;;;25.97;31.24;101629.38;5031139;28;20018;-65
2022/05/04 07:48:21;;;;;;;9.73;3.90;;;;;;;26.12;31.19;101625.59;5015979;28;20036;-65
2022/05/04 07:50:46;;;;;;;13.77;4.22;;;;;;;26.26;30.67;101628.16;5015723;28;20025;-65
2022/05/04 07:53:12;;;;;;;14.30;3.88;;;;;;;26.42;30.49;101637.84;5015664;28;20022;-65
2022/05/04 07:55:37;;;;;;;8.20;4.38;;;;;;;26.54;30.35;101631.50;5015672;28;20026;-65
2022/05/04 07:58:02;;;;;;;14.20;5.85;;;;;;;26.67;30.32;101632.53;5015706;28;20026;-65
2022/05/04 08:05:56;;;;;;;13.00;4.50;;;;;;;27.03;29.78;101639.22;5015269;28;20088;-65
2022/05/04 08:08:21;;;;;;;7.88;4.40;;;;;;;27.16;29.29;101630.91;5015254;28;20026;-65
2022/05/04 08:10:46;;;;;;;11.77;3.95;;;;;;;27.26;29.97;101635.94;5015419;28;20434;-65
2022/05/04 08:13:12;;;;;;;10.48;5.00;;;;;;;27.40;28.93;101636.72;5015193;28;20065;-64
2022/05/04 08:15:37;;;;;;;9.15;3.88;;;;;;;27.56;28.97;101641.75;5015226;28;20050;-65
2022/05/04 08:18:03;;;;;;;14.73;4.20;;;;;;;27.73;29.47;101637.41;5015241;28;20529;-65
2022/05/04 08:20:29;;;;;;;12.27;4.05;;;;;;;27.89;28.38;101642.34;5030672;28;20037;-65
2022/05/04 08:22:55;;;;;;;7.47;4.13;;;;;;;28.00;29.06;101640.81;5015568;28;20026;-64
2022/05/04 08:25:20;;;;;;;11.55;4.47;;;;;;;28.11;28.83;101635.44;5015222;28;20105;-66
2022/05/04 08:27:46;;;;;;;14.43;4.10;;;;;;;28.24;29.10;101629.81;5015112;28;20109;-65
2022/05/04 08:30:17;;;;;;;9.13;4.53;;;;;;;28.37;28.47;101633.50;5014236;28;20096;-65
2022/05/04 08:32:46;;;;;;;13.48;4.28;;;;;;;28.50;28.55;101631.50;5015013;28;20018;-64
2022/05/04 08:35:13;;;;;;;10.50;4.53;;;;;;;28.63;27.78;101630.53;5015158;28;20104;-66
2022/05/04 08:37:39;;;;;;;10.05;4.30;;;;;;;28.81;27.34;101636.09;5014941;28;20030;-64
2022/05/04 08:40:05;;;;;;;11.10;4.60;;;;;;;28.94;28.34;101635.91;5015246;28;20044;-65
2022/05/04 08:42:30;;;;;;;8.50;4.43;;;;;;;29.05;28.22;101637.06;5014715;28;20145;-65
2022/05/04 08:44:57;;;;;;;12.85;4.40;;;;;;;29.17;27.74;101636.06;5015033;28;20115;-65
2022/05/04 08:47:26;;;;;;;7.38;4.88;;;;;;;29.25;27.26;101632.16;5014831;28;20396;-66
2022/05/04 08:49:51;;;;;;;13.20;5.45;;;;;;;29.35;27.79;101630.53;5030217;28;20026;-65
2022/05/04 08:52:17;;;;;;;10.52;4.47;;;;;;;29.48;27.06;101631.44;5029894;28;20101;-66
2022/05/04 08:54:45;;;;;;;11.52;4.50;;;;;;;29.58;27.57;101632.53;5014405;28;20128;-65
2022/05/04 08:57:11;;;;;;;11.32;4.88;;;;;;;29.72;27.49;101623.00;5013795;28;20053;-65
2022/05/04 08:59:36;;;;;;;11.90;4.25;;;;;;;29.85;26.66;101624.72;5014370;28;20030;-65
2022/05/04 09:02:02;;;;;;;15.52;4.03;;;;;;;29.99;27.04;101629.81;5013916;28;20033;-66
2022/05/04 09:04:30;;;;;;;7.90;4.35;;;;;;;30.14;26.85;101623.81;5040970;28;20073;-66
2022/05/04 09:06:56;;;;;;;9.60;4.10;;;;;;;30.28;26.52;101625.28;5052705;28;20124;-67
2022/05/04 09:09:22;;;;;;;11.77;4.68;;;;;;;30.40;26.39;101623.38;5053571;28;20532;-67
2022/05/04 09:11:47;;;;;;;10.63;4.88;;;;;;;30.50;26.33;101620.88;5053581;28;20025;-67
2022/05/04 09:14:20;;;;;;;15.13;5.03;;;;;;;30.64;26.67;101623.38;5053777;28;20104;-67
2022/05/04 09:16:46;;;;;;;6.88;3.88;;;;;;;30.80;26.00;101625.38;5036608;28;20036;-67
2022/05/04 09:19:14;;;;;;;10.45;4.82;;;;;;;30.95;26.02;101617.47;5053287;28;20025;-67
2022/05/04 09:21:40;;;;;;;8.90;4.28;;;;;;;31.04;25.17;101616.00;5053898;28;20033;-66
2022/05/04 09:24:05;;;;;;;12.48;4.47;;;;;;;31.13;25.86;101615.34;5054253;28;20021;-67
2022/05/04 09:26:32;;;;;;;16.85;5.60;;;;;;;31.22;25.45;101618.56;5053358;28;20017;-66
2022/05/04 09:29:00;;;;;;;22.58;5.28;;;;;;;31.30;25.52;101612.63;5052316;28;20479;-65
2022/05/04 09:31:27;;;;;;;11.48;5.30;;;;;;;31.37;24.85;101620.81;5053103;28;20025;-67
2022/05/04 09:33:55;;;;;;;7.50;4.80;;;;;;;31.47;25.50;101608.03;5035256;28;20025;-67
2022/05/04 09:36:37;;;;;;;12.38;5.55;;;;;;;31.54;24.96;101614.25;5035471;28;20061;-68
2022/05/04 09:45:11;;;;;;;14.70;5.32;;;;;;;31.68;24.86;101610.09;5053139;28;20138;-68
2022/05/04 09:47:42;;;;;;;13.20;4.53;;;;;;;31.79;24.79;101613.03;5053376;28;20021;-67
2022/05/04 09:50:09;;;;;;;8.90;4.50;;;;;;;31.98;24.53;101609.78;5055406;28;20029;-66
2022/05/04 09:52:41;;;;;;;11.82;4.47;;;;;;;32.36;24.53;101597.09;5057222;28;20017;-66
2022/05/04 09:55:24;;;;;;;;;;;;;;;32.93;24.00;101598.50;5057606;28;20159;-67
2022/05/04 09:57:51;;;;;;;14.02;5.97;;;;;;;33.75;23.18;101593.59;5057213;28;19919;-67
2022/05/04 10:00:21;;;;;;;13.20;5.57;;;;;;;34.76;22.95;101597.16;5057195;28;20025;-67
2022/05/04 10:02:51;;;;;;;13.77;4.78;;;;;;;36.19;21.55;101600.88;5058454;28;20025;-66
2022/05/04 10:05:17;;;;;;;13.93;4.55;;;;;;;36.37;21.17;101601.44;5059729;28;20025;-67
2022/05/04 10:07:44;;;;;;;12.48;4.88;;;;;;;35.84;21.76;101598.09;5057499;28;20551;-67
2022/05/04 10:10:11;;;;;;;7.28;4.60;;;;;;;35.49;21.78;101596.06;5057062;28;20020;-67
2022/05/04 10:12:44;;;;;;;10.15;4.50;;;;;;;35.21;22.24;101587.34;5056857;28;20443;-68
2022/05/04 10:15:11;;;;;;;13.63;5.13;;;;;;;35.04;22.39;101582.81;5057095;28;20148;-67
2022/05/04 10:17:45;;;;;;;9.43;4.43;;;;;;;34.97;21.84;101582.25;5056783;28;20020;-68
2022/05/04 10:20:17;;;;;;;10.68;4.53;;;;;;;35.01;22.30;101586.13;5039244;28;20103;-67
2022/05/04 10:23:03;;;;;;;;;;;;;;;35.18;22.81;101582.34;5057384;28;20033;-67
2022/05/04 10:25:34;;;;;;;10.75;4.25;;;;;;;35.35;21.65;101582.91;5025704;28;19909;-67
2022/05/04 10:28:15;;;;;;;7.80;4.60;;;;;;;35.52;21.92;101580.72;5056596;28;20448;-67
2022/05/04 10:30:49;;;;;;;10.20;4.73;;;;;;;35.64;21.54;101575.75;5056674;28;20040;-67
2022/05/04 10:33:18;;;;;;;9.13;4.35;;;;;;;35.78;21.26;101582.47;5038594;28;20032;-67
2022/05/04 10:35:43;;;;;;;8.30;4.75;;;;;;;35.92;21.38;101572.44;5056735;28;20409;-67
2022/05/04 10:38:27;;;;;;;10.50;4.90;;;;;;;36.10;21.31;101573.81;5056379;28;20033;-68
2022/05/04 10:40:57;;;;;;;12.13;5.28;;;;;;;36.24;21.26;101571.31;5056654;28;20021;-67
2022/05/04 10:43:43;;;;;;;6.75;4.18;;;;;;;36.38;20.47;101581.59;5056270;28;20405;-67
2022/05/04 10:46:10;;;;;;;11.57;4.65;;;;;;;36.55;20.54;101573.75;5056341;28;20028;-66
2022/05/04 10:48:36;;;;;;;11.32;4.53;;;;;;;36.65;20.22;101572.91;5056763;28;20094;-68
2022/05/04 10:51:22;;;;;;;8.38;4.75;;;;;;;36.63;20.24;101575.16;5056653;28;20033;-67
2022/05/04 10:53:53;;;;;;;9.35;4.72;;;;;;;36.72;20.08;101570.63;5056348;28;20024;-67
2022/05/04 10:56:22;;;;;;;8.43;4.37;;;;;;;36.83;20.19;101569.47;5056434;28;20414;-67
2022/05/04 10:58:59;;;;;;;7.25;4.38;;;;;;;36.96;19.69;101566.09;5056277;28;20281;-66
2022/05/04 11:01:25;;;;;;;8.73;4.40;;;;;;;37.08;20.14;101561.00;5055949;28;20535;-67
2022/05/04 11:03:55;;;;;;;10.68;5.00;;;;;;;37.20;19.88;101574.63;5056308;28;20033;-68
2022/05/04 11:06:22;;;;;;;9.93;4.55;;;;;;;37.33;19.87;101566.44;5056241;28;20312;-68
2022/05/04 11:08:48;;;;;;;8.48;4.47;;;;;;;37.43;19.62;101571.16;5056118;28;20027;-67
2022/05/04 11:11:14;;;;;;;7.72;4.43;;;;;;;37.53;19.87;101553.47;5055992;28;20028;-67
2022/05/04 11:13:42;;;;;;;10.00;4.63;;;;;;;37.60;19.23;101562.38;5056083;28;20033;-67
2022/05/04 11:16:08;;;;;;;7.82;4.38;;;;;;;37.66;19.63;101564.00;5055898;28;20029;-67
2022/05/04 11:18:33;;;;;;;12.18;4.07;;;;;;;37.70;19.35;101548.28;5056177;28;20025;-67
2022/05/04 11:21:01;;;;;;;7.88;4.35;;;;;;;37.74;18.99;101555.00;5056166;28;20092;-67
2022/05/04 11:23:27;;;;;;;10.43;4.40;;;;;;;37.75;18.83;101556.63;5056189;28;20052;-67
2022/05/04 11:25:52;;;;;;;10.60;4.90;;;;;;;37.77;19.03;101554.41;5056139;28;20017;-68
2022/05/04 11:28:26;;;;;;;8.60;4.40;;;;;;;37.80;18.96;101553.81;5055456;28;20452;-67
2022/05/04 11:30:52;;;;;;;6.35;3.88;;;;;;;37.82;19.31;101549.59;5055561;28;20025;-67
2022/05/04 11:33:18;;;;;;;9.38;4.47;;;;;;;37.83;18.70;101547.63;5056000;28;20021;-66
2022/05/04 11:35:44;;;;;;;8.50;4.57;;;;;;;37.89;19.04;101543.66;5055571;28;20029;-68
2022/05/04 11:38:17;;;;;;;7.93;4.68;;;;;;;37.93;19.17;101541.97;5055590;28;20025;-67
2022/05/04 11:40:45;;;;;;;6.65;4.18;;;;;;;37.95;18.74;101530.47;5055570;28;20056;-68
2022/05/04 11:43:21;;;;;;;13.65;3.85;;;;;;;38.01;18.25;101537.69;5055315;28;20045;-68
2022/05/04 11:45:48;;;;;;;8.18;3.75;;;;;;;38.00;18.57;101536.03;5056324;28;20033;-67
2022/05/04 11:48:13;;;;;;;6.15;3.75;;;;;;;38.10;18.85;101536.75;5055557;28;20021;-67
2022/05/04 11:50:42;;;;;;;6.68;3.50;;;;;;;38.20;17.69;101531.06;5037576;28;20502;-67